Austin Straubel International Airport
KGRB : now visible

Airfield :











YOU CAN JOIN US ON...

 
LOGIN :

Register | Disclaimer

   EN    FR    IT 

 









Legend :    VFR   Marginal VFR   IFR   Intensive IFR   Very Intensive IFR
Visi :
Ceiling :
>= 8 km
>= 3000ft
5 to 8 km
1000 to 3000 ft
1500m to 5 km
500 to 1000 ft
800 to 1500m
200 to 500 ft
< 800m
< 200 ft
Symbols :   Thunderstorms  Fog  Heavy snow  Heavy precipitations  Wind > 20 kt






- Airport Elevation : 695 ft
- IATA code : GRB


KGRB - Austin Straubel International

CURRENT METAR :
  • 212253Z 32005KT 10SM CLR 08/01 A3001 RMK AO2 SLP167 T00780006

EXPIRED METARs :
  • 212153Z 32012KT 10SM BKN040 10/01 A2999 RMK AO2 SLP160 T01000011
  • 212053Z 01011KT 10SM BKN035 11/02 A2996 RMK AO2 SLP149 T01110022 51014

TAF KGRB
Valid from the 21 at 20:00 until the 22 at 18:00 UTC


211954Z 2120/2218 36013G18KT P6SM SCT030 SCT070
FM212300 33007KT P6SM SCT250
FM220200 34006KT P6SM BKN250
FM221100 32004KT P6SM BKN150
FM221500 33006KT P6SM SCT030 BKN150
KZMP FIR / North America



MET'MAP, your aeronautical weather chart ! - Copyright ORBIFLY December 2007 - Disclaimer

ORBIFLY MET'MAP TEAM :

Programming & Development : Alexandra Zaïnal
Concept & original design : Baudouin d'Aumeries
Assistance for programming : Marc-Olivier Méhu
Technical & hardware support : Manuel Goepfert

Contact : metmap@orbifly.com




SOURCES & CREDITS :

   NOAA       Earth
Advisory